createdAt,value
2022-11-05T00:00:21.237Z,13.00
2022-11-05T00:03:06.631Z,13.00
2022-11-05T00:05:51.977Z,12.90
2022-11-05T00:08:37.114Z,12.90
2022-11-05T00:11:03.932Z,12.90
2022-11-05T00:13:49.029Z,12.90
2022-11-05T00:16:48.024Z,12.80
2022-11-05T00:19:14.901Z,12.90
2022-11-05T00:22:00.316Z,12.80
2022-11-05T00:24:45.656Z,12.80
2022-11-05T00:27:12.604Z,12.80
2022-11-05T00:29:39.231Z,12.80
2022-11-05T00:32:06.151Z,12.80
2022-11-05T00:34:32.913Z,12.80
2022-11-05T00:36:59.555Z,12.80
2022-11-05T00:39:26.148Z,12.80
2022-11-05T00:42:11.417Z,12.80
2022-11-05T00:44:56.744Z,12.80
2022-11-05T00:47:42.139Z,12.80
2022-11-05T00:50:10.761Z,12.80
2022-11-05T00:52:56.295Z,12.80
2022-11-05T00:55:24.471Z,12.70
2022-11-05T00:57:51.391Z,12.70
2022-11-05T01:00:18.421Z,12.70
2022-11-05T01:02:45.447Z,12.70
2022-11-05T01:05:12.973Z,12.70
2022-11-05T01:07:39.930Z,12.70
2022-11-05T01:10:07.028Z,12.60
2022-11-05T01:12:34.133Z,12.60
2022-11-05T01:15:01.805Z,12.60
2022-11-05T01:17:28.519Z,12.60
2022-11-05T01:19:55.671Z,12.60
2022-11-05T01:22:22.363Z,12.60
2022-11-05T01:24:49.110Z,12.60
2022-11-05T01:27:16.008Z,12.60
2022-11-05T01:29:42.791Z,12.50
2022-11-05T01:32:09.772Z,12.50
2022-11-05T01:34:36.496Z,12.50
2022-11-05T01:37:03.135Z,12.50
2022-11-05T01:39:29.904Z,12.50
2022-11-05T01:41:58.712Z,12.50
2022-11-05T01:45:01.359Z,12.50
2022-11-05T01:47:48.911Z,12.50
2022-11-05T01:50:25.196Z,12.50
2022-11-05T01:52:57.416Z,12.40
2022-11-05T01:55:28.377Z,12.40
2022-11-05T01:57:57.473Z,12.40
2022-11-05T02:00:24.287Z,12.40
2022-11-05T02:02:51.289Z,12.40
2022-11-05T02:05:18.060Z,12.40
2022-11-05T02:07:46.388Z,12.40
2022-11-05T02:10:15.724Z,12.40
2022-11-05T02:12:45.260Z,12.40
2022-11-05T02:15:14.343Z,12.40
2022-11-05T02:17:56.838Z,12.40
2022-11-05T02:20:34.722Z,12.40
2022-11-05T02:23:29.048Z,12.40
2022-11-05T02:26:32.627Z,12.40
2022-11-05T02:29:08.572Z,12.40
2022-11-05T02:31:45.207Z,12.30
2022-11-05T02:34:33.092Z,12.40
2022-11-05T02:37:28.502Z,12.30
2022-11-05T02:40:20.632Z,12.30
2022-11-05T02:43:17.514Z,12.30
2022-11-05T02:46:14.159Z,12.30
2022-11-05T02:48:59.530Z,12.30
2022-11-05T02:51:35.667Z,12.30
2022-11-05T02:54:12.466Z,12.20
2022-11-05T02:56:47.070Z,12.30
2022-11-05T02:59:14.222Z,12.20
2022-11-05T03:01:43.204Z,12.20
2022-11-05T03:04:13.429Z,12.20
2022-11-05T03:07:19.898Z,12.20
2022-11-05T03:10:07.075Z,12.20
2022-11-05T03:12:42.938Z,12.20
2022-11-05T03:15:30.003Z,12.20
2022-11-05T03:18:11.521Z,12.20
2022-11-05T03:21:00.753Z,12.20
2022-11-05T03:23:40.196Z,12.20
2022-11-05T03:26:19.459Z,12.20
2022-11-05T03:28:56.255Z,12.20
2022-11-05T03:31:25.139Z,12.20
2022-11-05T03:33:53.819Z,12.20
2022-11-05T03:36:27.040Z,12.20
2022-11-05T03:38:56.079Z,12.20
2022-11-05T03:41:25.157Z,12.10
2022-11-05T03:43:57.235Z,12.20
2022-11-05T03:46:29.981Z,12.20
2022-11-05T03:49:01.371Z,12.20
2022-11-05T03:51:46.593Z,12.20
2022-11-05T03:54:14.230Z,12.20
2022-11-05T03:56:54.893Z,12.20
2022-11-05T03:59:22.457Z,12.20
2022-11-05T04:01:50.067Z,12.20
2022-11-05T04:04:16.884Z,12.20
2022-11-05T04:07:02.401Z,12.20
2022-11-05T04:09:48.510Z,12.20
2022-11-05T04:12:34.602Z,12.20
2022-11-05T04:15:01.295Z,12.20
2022-11-05T04:17:28.117Z,12.20
2022-11-05T04:20:13.256Z,12.20
2022-11-05T04:22:58.923Z,12.20
2022-11-05T04:25:25.541Z,12.20
2022-11-05T04:27:52.652Z,12.20
2022-11-05T04:30:20.244Z,12.20
2022-11-05T04:33:07.347Z,12.20
2022-11-05T04:35:45.671Z,12.20
2022-11-05T04:38:18.706Z,12.20
2022-11-05T04:40:46.690Z,12.20
2022-11-05T04:43:18.809Z,12.20
2022-11-05T04:45:46.073Z,12.20
2022-11-05T04:48:12.763Z,12.20
2022-11-05T04:50:39.651Z,12.20
2022-11-05T04:53:06.324Z,12.20
2022-11-05T04:55:33.028Z,12.20
2022-11-05T04:57:59.636Z,12.20
2022-11-05T05:00:26.442Z,12.20
2022-11-05T05:02:53.104Z,12.20
2022-11-05T05:05:21.278Z,12.20
2022-11-05T05:07:47.871Z,12.20
2022-11-05T05:10:15.184Z,12.20
2022-11-05T05:12:41.940Z,12.20
2022-11-05T05:15:08.985Z,12.20
2022-11-05T05:17:35.604Z,12.20
2022-11-05T05:20:21.632Z,12.20
2022-11-05T05:22:53.215Z,12.20
2022-11-05T05:25:19.951Z,12.20
2022-11-05T05:27:46.773Z,12.20
2022-11-05T05:30:13.468Z,12.10
2022-11-05T05:32:40.288Z,12.10
2022-11-05T05:35:07.191Z,12.10
2022-11-05T05:37:34.033Z,12.10
2022-11-05T05:40:00.647Z,12.10
2022-11-05T05:42:27.463Z,12.10
2022-11-05T05:44:54.090Z,12.10
2022-11-05T05:47:20.857Z,12.10
2022-11-05T05:49:47.713Z,12.10
2022-11-05T05:52:14.314Z,12.10
2022-11-05T05:54:43.030Z,12.10
2022-11-05T05:57:10.076Z,12.10
2022-11-05T05:59:36.927Z,12.10
2022-11-05T06:02:03.693Z,12.10
2022-11-05T06:04:30.639Z,12.10
2022-11-05T06:06:57.207Z,12.10
2022-11-05T06:09:23.958Z,12.10
2022-11-05T06:11:50.830Z,12.10
2022-11-05T06:14:17.519Z,12.10
2022-11-05T06:16:44.316Z,12.10
2022-11-05T06:19:10.913Z,12.10
2022-11-05T06:21:38.046Z,12.10
2022-11-05T06:24:04.840Z,12.00
2022-11-05T06:26:31.857Z,12.00
2022-11-05T06:28:58.440Z,12.10
2022-11-05T06:31:25.400Z,12.00
2022-11-05T06:33:52.404Z,12.00
2022-11-05T06:36:20.087Z,12.00
2022-11-05T06:38:47.243Z,12.00
2022-11-05T06:41:14.031Z,11.90
2022-11-05T06:43:40.779Z,12.00
2022-11-05T06:46:08.037Z,12.00
2022-11-05T06:48:34.867Z,11.90
2022-11-05T06:51:01.949Z,11.90
2022-11-05T06:53:29.818Z,11.90
2022-11-05T06:55:56.564Z,11.90
2022-11-05T06:58:23.291Z,11.90
2022-11-05T07:00:50.346Z,12.00
2022-11-05T07:03:17.852Z,12.00
2022-11-05T07:05:48.009Z,12.00
2022-11-05T07:08:15.609Z,12.00
2022-11-05T07:10:42.230Z,12.00
2022-11-05T07:13:09.364Z,12.00
2022-11-05T07:15:36.912Z,12.00
2022-11-05T07:18:04.496Z,12.00
2022-11-05T07:20:34.154Z,12.00
2022-11-05T07:23:10.658Z,12.00
2022-11-05T07:25:37.692Z,12.00
2022-11-05T07:28:04.984Z,12.00
2022-11-05T07:30:33.222Z,12.00
2022-11-05T07:33:00.032Z,12.10
2022-11-05T07:35:30.043Z,12.10
2022-11-05T07:37:57.035Z,12.10
2022-11-05T07:40:25.710Z,12.10
2022-11-05T07:42:54.592Z,12.10
2022-11-05T07:45:21.645Z,12.10
2022-11-05T07:48:14.477Z,12.10
2022-11-05T07:50:41.239Z,12.10
2022-11-05T07:53:11.798Z,12.10
2022-11-05T07:55:40.972Z,12.10
2022-11-05T07:58:07.823Z,12.10
2022-11-05T08:00:34.654Z,12.00
2022-11-05T08:03:08.206Z,12.10
2022-11-05T08:05:39.045Z,12.10
2022-11-05T08:08:08.044Z,12.10
2022-11-05T08:10:35.551Z,12.10
2022-11-05T08:13:02.798Z,12.10
2022-11-05T08:15:29.616Z,12.10
2022-11-05T08:18:04.808Z,12.20
2022-11-05T08:20:32.210Z,12.20
2022-11-05T08:22:59.322Z,12.20
2022-11-05T08:25:26.417Z,12.30
2022-11-05T08:27:58.379Z,12.30
2022-11-05T08:30:25.499Z,12.30
2022-11-05T08:32:57.784Z,12.40
2022-11-05T08:35:25.308Z,12.40
2022-11-05T08:38:02.556Z,12.40
2022-11-05T08:40:31.534Z,12.50
2022-11-05T08:42:59.195Z,12.70
2022-11-05T08:45:27.283Z,12.80
2022-11-05T08:48:08.447Z,12.90
2022-11-05T08:50:37.131Z,13.00
2022-11-05T08:53:05.178Z,13.10
2022-11-05T08:55:32.199Z,13.20
2022-11-05T08:58:00.991Z,13.20
2022-11-05T09:00:30.805Z,13.30
2022-11-05T09:03:01.892Z,13.40
2022-11-05T09:05:29.860Z,13.50
2022-11-05T09:08:00.771Z,13.50
2022-11-05T09:10:28.627Z,13.60
2022-11-05T09:12:55.422Z,13.60
2022-11-05T09:15:23.289Z,13.50
2022-11-05T09:17:50.336Z,13.60
2022-11-05T09:20:17.091Z,13.60
2022-11-05T09:22:44.185Z,13.50
2022-11-05T09:25:11.289Z,13.50
2022-11-05T09:27:37.959Z,13.50
2022-11-05T09:30:05.433Z,13.50
2022-11-05T09:32:32.749Z,13.50
2022-11-05T09:35:02.568Z,13.60
2022-11-05T09:37:29.617Z,13.70
2022-11-05T09:39:56.233Z,13.80
2022-11-05T09:42:29.178Z,14.00
2022-11-05T09:45:03.364Z,14.20
2022-11-05T09:47:36.587Z,14.30
2022-11-05T09:50:08.754Z,14.40
2022-11-05T09:52:35.531Z,14.40
2022-11-05T09:55:18.851Z,14.50
2022-11-05T09:57:55.948Z,14.70
2022-11-05T10:00:23.092Z,14.70
2022-11-05T10:02:55.538Z,14.80
2022-11-05T10:05:24.931Z,14.90
2022-11-05T10:07:56.678Z,15.00
2022-11-05T10:10:29.530Z,15.00
2022-11-05T10:13:05.019Z,15.00
2022-11-05T10:15:37.267Z,15.00
2022-11-05T10:18:19.338Z,15.00
2022-11-05T10:20:46.604Z,14.90
2022-11-05T10:23:18.827Z,14.90
2022-11-05T10:25:50.474Z,14.90
2022-11-05T10:28:22.110Z,15.00
2022-11-05T10:30:52.769Z,15.20
2022-11-05T10:33:31.496Z,15.50
2022-11-05T10:36:06.109Z,15.90
2022-11-05T10:38:33.279Z,16.20
2022-11-05T10:41:28.836Z,16.50
2022-11-05T10:44:20.987Z,16.80
2022-11-05T10:47:06.886Z,17.00
2022-11-05T10:49:59.576Z,17.10
2022-11-05T10:52:33.415Z,17.30
2022-11-05T10:55:04.212Z,17.60
2022-11-05T10:57:39.908Z,18.20
2022-11-05T11:00:18.909Z,18.90
2022-11-05T11:03:01.576Z,19.90
2022-11-05T11:05:35.461Z,20.70
2022-11-05T11:08:02.339Z,21.60
2022-11-05T11:10:32.485Z,22.30
2022-11-05T11:12:59.630Z,22.80
2022-11-05T11:15:29.461Z,23.20
2022-11-05T11:17:56.663Z,23.60
2022-11-05T11:20:31.572Z,23.90
2022-11-05T11:23:15.118Z,24.00
2022-11-05T11:26:01.268Z,24.10
2022-11-05T11:28:32.801Z,24.10
2022-11-05T11:31:29.282Z,24.10
2022-11-05T11:34:24.519Z,24.00
2022-11-05T11:36:55.470Z,23.80
2022-11-05T11:39:30.345Z,23.60
2022-11-05T11:42:01.683Z,23.60
2022-11-05T11:44:30.998Z,23.50
2022-11-05T11:47:02.055Z,23.40
2022-11-05T11:49:42.033Z,23.20
2022-11-05T11:52:15.279Z,23.10
2022-11-05T11:54:42.368Z,22.90
2022-11-05T11:57:29.004Z,22.80
2022-11-05T12:00:14.394Z,22.60
2022-11-05T12:02:46.791Z,22.40
2022-11-05T12:05:37.697Z,22.20
2022-11-05T12:08:18.931Z,21.90
2022-11-05T12:10:57.844Z,21.60
2022-11-05T12:13:43.176Z,21.30
2022-11-05T12:16:20.573Z,21.00
2022-11-05T12:19:02.498Z,20.70
2022-11-05T12:21:58.966Z,20.40
2022-11-05T12:24:38.064Z,20.00
2022-11-05T12:27:38.293Z,19.80
2022-11-05T12:30:17.467Z,19.60
2022-11-05T12:33:18.945Z,19.40
2022-11-05T12:36:14.419Z,19.30
2022-11-05T12:39:19.870Z,19.20
2022-11-05T12:44:58.908Z,19.00
2022-11-05T12:47:45.321Z,18.80
2022-11-05T12:50:22.156Z,18.60
2022-11-05T12:53:15.812Z,18.40
2022-11-05T12:55:48.716Z,18.30
2022-11-05T12:58:36.772Z,18.00
2022-11-05T13:01:16.813Z,17.90
2022-11-05T13:03:59.560Z,17.80
2022-11-05T13:06:34.188Z,17.80
2022-11-05T13:09:07.685Z,17.90
2022-11-05T13:11:47.025Z,18.00
2022-11-05T13:14:22.271Z,18.10
2022-11-05T13:17:06.933Z,18.10
2022-11-05T13:19:59.503Z,18.10
2022-11-05T13:22:47.732Z,18.00
2022-11-05T13:25:29.243Z,18.00
2022-11-05T13:28:22.235Z,18.00
2022-11-05T13:30:52.631Z,18.00
2022-11-05T13:33:36.312Z,17.90
2022-11-05T13:36:49.170Z,17.90
2022-11-05T13:39:28.836Z,17.80
2022-11-05T13:42:30.820Z,17.70
2022-11-05T13:45:32.065Z,17.70
2022-11-05T13:48:16.848Z,17.50
2022-11-05T13:51:05.719Z,17.40
2022-11-05T13:53:42.536Z,17.30
2022-11-05T13:56:47.197Z,17.20
2022-11-05T13:59:35.034Z,17.10
2022-11-05T14:02:05.303Z,16.90
2022-11-05T14:04:36.061Z,16.80
2022-11-05T14:07:12.443Z,16.80
2022-11-05T14:09:41.466Z,16.80
2022-11-05T14:12:19.502Z,16.70
2022-11-05T14:14:58.450Z,16.60
2022-11-05T14:18:04.270Z,16.60
2022-11-05T14:20:31.118Z,16.60
2022-11-05T14:23:25.842Z,16.50
2022-11-05T14:26:11.574Z,16.40
2022-11-05T14:28:38.157Z,16.40
2022-11-05T14:31:20.644Z,16.40
2022-11-05T14:34:11.951Z,16.30
2022-11-05T14:36:40.755Z,16.20
2022-11-05T14:39:33.814Z,16.10
2022-11-05T14:42:06.536Z,16.10
2022-11-05T14:44:35.299Z,16.00
2022-11-05T14:47:05.716Z,16.00
2022-11-05T14:50:02.892Z,15.90
2022-11-05T14:52:29.955Z,15.80
2022-11-05T14:54:58.170Z,15.70
2022-11-05T14:57:43.281Z,15.60
2022-11-05T15:00:28.416Z,15.50
2022-11-05T15:03:01.367Z,15.40
2022-11-05T15:05:31.059Z,15.30
2022-11-05T15:07:58.580Z,15.20
2022-11-05T15:10:35.098Z,15.10
2022-11-05T15:13:06.200Z,15.00
2022-11-05T15:15:43.016Z,15.00
2022-11-05T15:18:26.914Z,14.90
2022-11-05T15:20:56.955Z,14.80
2022-11-05T15:23:29.440Z,14.70
2022-11-05T15:26:20.929Z,14.60
2022-11-05T15:28:53.524Z,14.60
2022-11-05T15:31:23.960Z,14.50
2022-11-05T15:33:50.947Z,14.40
2022-11-05T15:36:29.298Z,14.30
2022-11-05T15:39:27.562Z,14.20
2022-11-05T15:41:44.785Z,14.20
2022-11-05T15:44:31.559Z,14.10
2022-11-05T15:47:06.425Z,14.00
2022-11-05T15:49:33.664Z,13.90
2022-11-05T15:52:00.337Z,13.90
2022-11-05T15:54:31.138Z,13.80
2022-11-05T15:56:59.712Z,13.80
2022-11-05T15:59:29.149Z,13.70
2022-11-05T16:02:21.450Z,13.70
2022-11-05T16:04:49.076Z,13.60
2022-11-05T16:07:16.533Z,13.50
2022-11-05T16:09:52.567Z,13.50
2022-11-05T16:12:19.336Z,13.40
2022-11-05T16:15:17.975Z,13.40
2022-11-05T16:17:54.782Z,13.30
2022-11-05T16:20:26.139Z,13.20
2022-11-05T16:22:55.981Z,13.20
2022-11-05T16:25:28.759Z,13.10
2022-11-05T16:27:59.753Z,13.10
2022-11-05T16:30:26.820Z,13.00
2022-11-05T16:32:54.365Z,13.00
2022-11-05T16:35:24.053Z,12.90
2022-11-05T16:37:52.652Z,12.80
2022-11-05T16:40:22.287Z,12.70
2022-11-05T16:42:51.388Z,12.70
2022-11-05T16:45:21.014Z,12.60
2022-11-05T16:47:48.615Z,12.60
2022-11-05T16:50:29.842Z,12.60
2022-11-05T16:52:56.659Z,12.50
2022-11-05T16:55:23.411Z,12.50
2022-11-05T16:57:53.587Z,12.50
2022-11-05T17:00:21.686Z,12.50
2022-11-05T17:02:48.855Z,12.40
2022-11-05T17:05:25.324Z,12.40
2022-11-05T17:07:52.541Z,12.40
2022-11-05T17:10:20.571Z,12.40
2022-11-05T17:12:48.214Z,12.40
2022-11-05T17:15:15.991Z,12.40
2022-11-05T17:17:42.648Z,12.40
2022-11-05T17:20:40.378Z,12.30
2022-11-05T17:23:10.509Z,12.30
2022-11-05T17:25:38.315Z,12.30
2022-11-05T17:28:05.559Z,12.30
2022-11-05T17:30:33.035Z,12.30
2022-11-05T17:32:59.951Z,12.30
2022-11-05T17:35:27.050Z,12.30
2022-11-05T17:37:54.157Z,12.30
2022-11-05T17:40:22.604Z,12.20
2022-11-05T17:42:50.332Z,12.20
2022-11-05T17:45:17.843Z,12.20
2022-11-05T17:47:44.865Z,12.10
2022-11-05T17:50:13.621Z,12.10
2022-11-05T17:52:40.504Z,12.00
2022-11-05T17:55:16.569Z,12.00
2022-11-05T17:57:48.404Z,11.90
2022-11-05T18:00:22.052Z,11.90
2022-11-05T18:02:49.892Z,11.90
2022-11-05T18:05:20.677Z,11.80
2022-11-05T18:07:48.195Z,11.80
2022-11-05T18:10:15.776Z,11.70
2022-11-05T18:12:43.594Z,11.70
2022-11-05T18:15:11.010Z,11.70
2022-11-05T18:17:38.571Z,11.70
2022-11-05T18:20:15.770Z,11.70
2022-11-05T18:22:45.620Z,11.60
2022-11-05T18:25:13.411Z,11.60
2022-11-05T18:27:40.573Z,11.60
2022-11-05T18:30:08.079Z,11.60
2022-11-05T18:32:35.351Z,11.60
2022-11-05T18:35:01.977Z,11.60
2022-11-05T18:37:28.819Z,11.60
2022-11-05T18:39:55.581Z,11.60
2022-11-05T18:42:22.739Z,11.60
2022-11-05T18:44:49.796Z,11.60
2022-11-05T18:47:16.702Z,11.60
2022-11-05T18:49:43.475Z,11.60
2022-11-05T18:52:10.124Z,11.60
2022-11-05T18:54:36.938Z,11.60
2022-11-05T18:57:03.744Z,11.60
2022-11-05T18:59:37.790Z,11.60
2022-11-05T19:02:06.673Z,11.50
2022-11-05T19:04:35.683Z,11.50
2022-11-05T19:07:05.156Z,11.50
2022-11-05T19:09:37.988Z,11.50
2022-11-05T19:12:06.454Z,11.40
2022-11-05T19:14:33.584Z,11.40
2022-11-05T19:17:01.235Z,11.40
2022-11-05T19:19:28.194Z,11.40
2022-11-05T19:21:55.137Z,11.30
2022-11-05T19:24:21.897Z,11.30
2022-11-05T19:26:48.829Z,11.30
2022-11-05T19:29:15.640Z,11.30
2022-11-05T19:31:42.300Z,11.30
2022-11-05T19:34:09.189Z,11.20
2022-11-05T19:36:35.840Z,11.20
2022-11-05T19:39:06.505Z,11.20
2022-11-05T19:41:33.368Z,11.10
2022-11-05T19:44:01.672Z,11.10
2022-11-05T19:46:30.009Z,11.10
2022-11-05T19:48:57.434Z,11.10
2022-11-05T19:51:27.729Z,11.10
2022-11-05T19:53:55.140Z,11.10
2022-11-05T19:56:24.725Z,11.10
2022-11-05T19:58:53.074Z,11.10
2022-11-05T20:01:21.744Z,11.10
2022-11-05T20:03:48.783Z,11.10
2022-11-05T20:06:22.240Z,11.10
2022-11-05T20:11:37.798Z,11.10
2022-11-05T20:14:05.371Z,11.10
2022-11-05T20:16:37.939Z,11.10
2022-11-05T20:19:10.786Z,11.10
2022-11-05T20:21:38.431Z,11.10
2022-11-05T20:24:05.778Z,11.10
2022-11-05T20:26:32.980Z,11.10
2022-11-05T20:29:00.660Z,11.00
2022-11-05T20:31:27.364Z,11.10
2022-11-05T20:33:54.472Z,11.10
2022-11-05T20:36:22.872Z,11.10
2022-11-05T20:38:55.835Z,11.10
2022-11-05T20:41:23.005Z,11.10
2022-11-05T20:43:50.705Z,11.10
2022-11-05T20:46:19.283Z,11.10
2022-11-05T20:48:46.623Z,11.10
2022-11-05T20:51:16.510Z,11.10
2022-11-05T20:53:44.007Z,11.10
2022-11-05T20:56:19.043Z,11.10
2022-11-05T20:58:47.290Z,11.20
2022-11-05T21:01:16.164Z,11.10
2022-11-05T21:03:44.492Z,11.20
2022-11-05T21:06:11.675Z,11.20
2022-11-05T21:08:39.052Z,11.20
2022-11-05T21:11:07.120Z,11.20
2022-11-05T21:13:33.982Z,11.20
2022-11-05T21:16:01.851Z,11.20
2022-11-05T21:18:34.176Z,11.20
2022-11-05T21:21:05.818Z,11.20
2022-11-05T21:23:32.472Z,11.20
2022-11-05T21:26:03.088Z,11.20
2022-11-05T21:28:29.704Z,11.20
2022-11-05T21:31:03.927Z,11.20
2022-11-05T21:33:30.983Z,11.20
2022-11-05T21:35:58.082Z,11.20
2022-11-05T21:38:25.147Z,11.20
2022-11-05T21:40:51.898Z,11.20
2022-11-05T21:43:18.657Z,11.20
2022-11-05T21:45:45.383Z,11.20
2022-11-05T21:48:15.700Z,11.20
2022-11-05T21:51:01.549Z,11.20
2022-11-05T21:53:47.032Z,11.20
2022-11-05T21:56:38.626Z,11.10
2022-11-05T21:59:24.364Z,11.10
2022-11-05T22:01:51.421Z,11.10
2022-11-05T22:04:18.308Z,11.10
2022-11-05T22:06:44.951Z,11.10
2022-11-05T22:09:12.316Z,11.10
2022-11-05T22:11:39.034Z,11.10
2022-11-05T22:14:05.857Z,11.00
2022-11-05T22:16:32.499Z,11.00
2022-11-05T22:18:59.724Z,11.00
2022-11-05T22:21:26.751Z,11.00
2022-11-05T22:23:53.623Z,11.00
2022-11-05T22:26:20.638Z,10.90
2022-11-05T22:28:47.391Z,10.90
2022-11-05T22:31:15.462Z,10.90
2022-11-05T22:33:42.742Z,10.90
2022-11-05T22:36:10.140Z,10.80
2022-11-05T22:38:37.603Z,10.80
2022-11-05T22:41:17.320Z,10.80
2022-11-05T22:43:45.479Z,10.70
2022-11-05T22:46:18.083Z,10.70
2022-11-05T22:48:46.012Z,10.70
2022-11-05T22:51:18.800Z,10.70
2022-11-05T22:53:46.395Z,10.60
2022-11-05T22:56:16.009Z,10.60
2022-11-05T22:58:43.695Z,10.60
2022-11-05T23:01:12.010Z,10.60
2022-11-05T23:03:40.609Z,10.50
2022-11-05T23:06:35.434Z,10.50
2022-11-05T23:09:23.676Z,10.50
2022-11-05T23:11:52.999Z,10.40
2022-11-05T23:14:20.242Z,10.40
2022-11-05T23:17:05.299Z,10.40
2022-11-05T23:19:50.665Z,10.40
2022-11-05T23:22:39.048Z,10.40
2022-11-05T23:25:08.005Z,10.30
2022-11-05T23:27:37.685Z,10.30
2022-11-05T23:30:09.380Z,10.30
2022-11-05T23:32:36.647Z,10.30
2022-11-05T23:35:04.621Z,10.30
2022-11-05T23:37:50.754Z,10.30
2022-11-05T23:40:20.834Z,10.30
2022-11-05T23:43:06.340Z,10.30
2022-11-05T23:45:52.314Z,10.30
2022-11-05T23:48:26.105Z,10.30
2022-11-05T23:50:55.719Z,10.30
2022-11-05T23:53:23.069Z,10.30
2022-11-05T23:55:50.131Z,10.30
2022-11-05T23:58:17.877Z,10.30
